sensor_id;sensor_type;location;lat;lon;timestamp;P1;durP1;ratioP1;P2;durP2;ratioP2
22211;SDS011;11275;52.488;13.462;2023-07-20T00:01:22;5.25;;;3.95;;
22211;SDS011;11275;52.488;13.462;2023-07-20T00:03:48;10.60;;;7.65;;
22211;SDS011;11275;52.488;13.462;2023-07-20T00:06:24;4.97;;;2.70;;
22211;SDS011;11275;52.488;13.462;2023-07-20T00:08:56;2.70;;;2.00;;
22211;SDS011;11275;52.488;13.462;2023-07-20T00:11:25;2.20;;;1.92;;
22211;SDS011;11275;52.488;13.462;2023-07-20T00:13:51;3.13;;;2.10;;
22211;SDS011;11275;52.488;13.462;2023-07-20T00:16:17;6.32;;;4.97;;
22211;SDS011;11275;52.488;13.462;2023-07-20T00:18:43;3.40;;;2.70;;
22211;SDS011;11275;52.488;13.462;2023-07-20T00:21:08;2.75;;;2.17;;
22211;SDS011;11275;52.488;13.462;2023-07-20T00:23:34;2.60;;;1.75;;
22211;SDS011;11275;52.488;13.462;2023-07-20T00:26:00;4.45;;;2.10;;
22211;SDS011;11275;52.488;13.462;2023-07-20T00:28:25;4.47;;;3.45;;
22211;SDS011;11275;52.488;13.462;2023-07-20T00:30:51;6.10;;;5.50;;
22211;SDS011;11275;52.488;13.462;2023-07-20T00:33:17;4.38;;;2.72;;
22211;SDS011;11275;52.488;13.462;2023-07-20T00:35:43;3.72;;;2.90;;
22211;SDS011;11275;52.488;13.462;2023-07-20T00:38:09;3.05;;;2.20;;
22211;SDS011;11275;52.488;13.462;2023-07-20T00:40:36;3.75;;;2.55;;
22211;SDS011;11275;52.488;13.462;2023-07-20T00:43:02;3.15;;;2.00;;
22211;SDS011;11275;52.488;13.462;2023-07-20T00:45:28;3.28;;;2.00;;
22211;SDS011;11275;52.488;13.462;2023-07-20T00:47:55;2.97;;;2.47;;
22211;SDS011;11275;52.488;13.462;2023-07-20T00:50:21;4.38;;;2.40;;
22211;SDS011;11275;52.488;13.462;2023-07-20T00:52:47;3.80;;;2.13;;
22211;SDS011;11275;52.488;13.462;2023-07-20T00:55:13;3.00;;;2.20;;
22211;SDS011;11275;52.488;13.462;2023-07-20T00:57:39;7.20;;;3.83;;
22211;SDS011;11275;52.488;13.462;2023-07-20T01:00:05;17.85;;;11.65;;
22211;SDS011;11275;52.488;13.462;2023-07-20T01:02:31;4.60;;;3.45;;
22211;SDS011;11275;52.488;13.462;2023-07-20T01:04:57;4.97;;;3.20;;
22211;SDS011;11275;52.488;13.462;2023-07-20T01:07:25;3.55;;;2.50;;
22211;SDS011;11275;52.488;13.462;2023-07-20T01:13:13;4.20;;;3.42;;
22211;SDS011;11275;52.488;13.462;2023-07-20T01:15:40;3.90;;;2.80;;
22211;SDS011;11275;52.488;13.462;2023-07-20T01:18:08;3.55;;;2.50;;
22211;SDS011;11275;52.488;13.462;2023-07-20T01:20:33;3.78;;;2.50;;
22211;SDS011;11275;52.488;13.462;2023-07-20T01:23:15;3.13;;;2.50;;
22211;SDS011;11275;52.488;13.462;2023-07-20T01:31:54;3.25;;;2.45;;
22211;SDS011;11275;52.488;13.462;2023-07-20T01:34:21;2.83;;;2.30;;
22211;SDS011;11275;52.488;13.462;2023-07-20T01:36:48;3.97;;;2.72;;
22211;SDS011;11275;52.488;13.462;2023-07-20T01:39:17;3.20;;;2.80;;
22211;SDS011;11275;52.488;13.462;2023-07-20T01:41:44;3.85;;;2.97;;
22211;SDS011;11275;52.488;13.462;2023-07-20T01:44:11;2.92;;;2.55;;
22211;SDS011;11275;52.488;13.462;2023-07-20T01:46:37;7.07;;;3.97;;
22211;SDS011;11275;52.488;13.462;2023-07-20T01:49:03;3.13;;;2.60;;
22211;SDS011;11275;52.488;13.462;2023-07-20T01:51:29;3.20;;;2.42;;
22211;SDS011;11275;52.488;13.462;2023-07-20T01:53:54;3.38;;;2.38;;
22211;SDS011;11275;52.488;13.462;2023-07-20T01:56:20;3.08;;;2.10;;
22211;SDS011;11275;52.488;13.462;2023-07-20T01:58:47;2.28;;;2.05;;
22211;SDS011;11275;52.488;13.462;2023-07-20T02:01:13;2.15;;;1.95;;
22211;SDS011;11275;52.488;13.462;2023-07-20T02:03:38;2.80;;;2.30;;
22211;SDS011;11275;52.488;13.462;2023-07-20T02:06:04;3.22;;;2.50;;
22211;SDS011;11275;52.488;13.462;2023-07-20T02:08:30;3.40;;;2.13;;
22211;SDS011;11275;52.488;13.462;2023-07-20T02:10:56;3.08;;;2.30;;
22211;SDS011;11275;52.488;13.462;2023-07-20T02:13:22;3.35;;;2.20;;
22211;SDS011;11275;52.488;13.462;2023-07-20T02:15:47;3.25;;;2.65;;
22211;SDS011;11275;52.488;13.462;2023-07-20T02:18:14;3.13;;;2.53;;
22211;SDS011;11275;52.488;13.462;2023-07-20T02:20:40;3.10;;;2.80;;
22211;SDS011;11275;52.488;13.462;2023-07-20T02:23:07;3.28;;;2.95;;
22211;SDS011;11275;52.488;13.462;2023-07-20T02:25:34;4.60;;;3.45;;
22211;SDS011;11275;52.488;13.462;2023-07-20T02:27:59;3.50;;;3.05;;
22211;SDS011;11275;52.488;13.462;2023-07-20T02:30:25;3.90;;;3.00;;
22211;SDS011;11275;52.488;13.462;2023-07-20T02:32:52;4.55;;;2.92;;
22211;SDS011;11275;52.488;13.462;2023-07-20T02:35:17;3.85;;;3.00;;
22211;SDS011;11275;52.488;13.462;2023-07-20T02:37:43;3.25;;;2.50;;
22211;SDS011;11275;52.488;13.462;2023-07-20T02:40:09;3.78;;;3.42;;
22211;SDS011;11275;52.488;13.462;2023-07-20T02:42:35;3.72;;;3.30;;
22211;SDS011;11275;52.488;13.462;2023-07-20T02:45:02;4.60;;;3.08;;
22211;SDS011;11275;52.488;13.462;2023-07-20T02:47:29;3.47;;;3.10;;
22211;SDS011;11275;52.488;13.462;2023-07-20T02:49:54;4.63;;;3.40;;
22211;SDS011;11275;52.488;13.462;2023-07-20T02:52:20;5.15;;;3.47;;
22211;SDS011;11275;52.488;13.462;2023-07-20T02:54:46;3.80;;;3.50;;
22211;SDS011;11275;52.488;13.462;2023-07-20T02:57:11;5.63;;;4.82;;
22211;SDS011;11275;52.488;13.462;2023-07-20T02:59:37;4.20;;;3.85;;
22211;SDS011;11275;52.488;13.462;2023-07-20T03:02:03;5.30;;;4.43;;
22211;SDS011;11275;52.488;13.462;2023-07-20T03:04:29;5.57;;;4.78;;
22211;SDS011;11275;52.488;13.462;2023-07-20T03:06:54;4.97;;;4.50;;
22211;SDS011;11275;52.488;13.462;2023-07-20T03:09:20;5.35;;;4.80;;
22211;SDS011;11275;52.488;13.462;2023-07-20T03:11:47;5.22;;;4.60;;
22211;SDS011;11275;52.488;13.462;2023-07-20T03:14:12;4.97;;;4.45;;
22211;SDS011;11275;52.488;13.462;2023-07-20T03:16:38;5.70;;;5.20;;
22211;SDS011;11275;52.488;13.462;2023-07-20T03:19:04;5.90;;;5.32;;
22211;SDS011;11275;52.488;13.462;2023-07-20T03:21:29;5.45;;;4.95;;
22211;SDS011;11275;52.488;13.462;2023-07-20T03:23:55;5.75;;;5.20;;
22211;SDS011;11275;52.488;13.462;2023-07-20T03:26:21;5.40;;;5.00;;
22211;SDS011;11275;52.488;13.462;2023-07-20T03:28:46;5.28;;;4.78;;
22211;SDS011;11275;52.488;13.462;2023-07-20T03:31:13;5.85;;;5.22;;
22211;SDS011;11275;52.488;13.462;2023-07-20T03:33:40;5.65;;;5.07;;
22211;SDS011;11275;52.488;13.462;2023-07-20T03:36:05;5.80;;;5.30;;
22211;SDS011;11275;52.488;13.462;2023-07-20T03:38:31;6.03;;;5.43;;
22211;SDS011;11275;52.488;13.462;2023-07-20T03:40:59;6.63;;;6.00;;
22211;SDS011;11275;52.488;13.462;2023-07-20T03:43:26;6.25;;;5.65;;
22211;SDS011;11275;52.488;13.462;2023-07-20T03:45:55;6.43;;;5.80;;
22211;SDS011;11275;52.488;13.462;2023-07-20T03:48:22;6.25;;;5.70;;
22211;SDS011;11275;52.488;13.462;2023-07-20T03:50:49;6.72;;;6.13;;
22211;SDS011;11275;52.488;13.462;2023-07-20T03:53:16;7.15;;;6.45;;
22211;SDS011;11275;52.488;13.462;2023-07-20T03:55:45;7.80;;;6.85;;
22211;SDS011;11275;52.488;13.462;2023-07-20T03:58:11;7.65;;;6.95;;
22211;SDS011;11275;52.488;13.462;2023-07-20T04:00:38;8.18;;;7.47;;
22211;SDS011;11275;52.488;13.462;2023-07-20T04:03:04;7.97;;;7.28;;
22211;SDS011;11275;52.488;13.462;2023-07-20T04:05:29;8.65;;;7.72;;
22211;SDS011;11275;52.488;13.462;2023-07-20T04:07:55;7.72;;;6.93;;
22211;SDS011;11275;52.488;13.462;2023-07-20T04:10:21;7.10;;;6.50;;
22211;SDS011;11275;52.488;13.462;2023-07-20T04:12:46;6.15;;;5.40;;
22211;SDS011;11275;52.488;13.462;2023-07-20T04:15:12;5.07;;;4.57;;
22211;SDS011;11275;52.488;13.462;2023-07-20T04:17:39;5.88;;;4.60;;
22211;SDS011;11275;52.488;13.462;2023-07-20T04:20:06;3.83;;;3.53;;
22211;SDS011;11275;52.488;13.462;2023-07-20T04:22:32;4.13;;;3.78;;
22211;SDS011;11275;52.488;13.462;2023-07-20T04:24:58;4.70;;;4.25;;
22211;SDS011;11275;52.488;13.462;2023-07-20T04:27:23;4.47;;;4.00;;
22211;SDS011;11275;52.488;13.462;2023-07-20T04:29:51;5.70;;;4.65;;
22211;SDS011;11275;52.488;13.462;2023-07-20T04:32:17;4.95;;;3.90;;
22211;SDS011;11275;52.488;13.462;2023-07-20T04:34:43;4.93;;;4.53;;
22211;SDS011;11275;52.488;13.462;2023-07-20T04:37:08;4.50;;;4.10;;
22211;SDS011;11275;52.488;13.462;2023-07-20T04:39:34;5.93;;;4.20;;
22211;SDS011;11275;52.488;13.462;2023-07-20T04:41:59;5.40;;;4.28;;
22211;SDS011;11275;52.488;13.462;2023-07-20T04:44:25;4.45;;;4.00;;
22211;SDS011;11275;52.488;13.462;2023-07-20T04:46:51;4.55;;;4.15;;
22211;SDS011;11275;52.488;13.462;2023-07-20T04:49:16;4.75;;;4.35;;
22211;SDS011;11275;52.488;13.462;2023-07-20T04:51:42;4.32;;;3.92;;
22211;SDS011;11275;52.488;13.462;2023-07-20T04:54:07;4.68;;;4.18;;
22211;SDS011;11275;52.488;13.462;2023-07-20T04:56:33;4.85;;;4.32;;
22211;SDS011;11275;52.488;13.462;2023-07-20T04:58:59;5.30;;;4.43;;
22211;SDS011;11275;52.488;13.462;2023-07-20T05:01:25;4.45;;;4.10;;
22211;SDS011;11275;52.488;13.462;2023-07-20T05:03:51;4.60;;;4.20;;
22211;SDS011;11275;52.488;13.462;2023-07-20T05:06:18;4.57;;;4.20;;
22211;SDS011;11275;52.488;13.462;2023-07-20T05:08:44;5.18;;;3.85;;
22211;SDS011;11275;52.488;13.462;2023-07-20T05:11:10;4.47;;;4.05;;
22211;SDS011;11275;52.488;13.462;2023-07-20T05:13:36;4.65;;;4.03;;
22211;SDS011;11275;52.488;13.462;2023-07-20T05:16:02;4.57;;;4.15;;
22211;SDS011;11275;52.488;13.462;2023-07-20T05:18:28;4.55;;;4.00;;
22211;SDS011;11275;52.488;13.462;2023-07-20T05:20:54;4.53;;;4.13;;
22211;SDS011;11275;52.488;13.462;2023-07-20T05:23:20;4.57;;;4.03;;
22211;SDS011;11275;52.488;13.462;2023-07-20T05:25:46;4.60;;;3.97;;
22211;SDS011;11275;52.488;13.462;2023-07-20T05:28:12;4.05;;;3.63;;
22211;SDS011;11275;52.488;13.462;2023-07-20T05:30:39;4.90;;;3.70;;
22211;SDS011;11275;52.488;13.462;2023-07-20T05:33:05;5.35;;;3.22;;
22211;SDS011;11275;52.488;13.462;2023-07-20T05:35:31;3.38;;;3.08;;
22211;SDS011;11275;52.488;13.462;2023-07-20T05:38:00;5.40;;;3.13;;
22211;SDS011;11275;52.488;13.462;2023-07-20T05:40:25;5.20;;;2.50;;
22211;SDS011;11275;52.488;13.462;2023-07-20T05:42:51;3.25;;;2.50;;
22211;SDS011;11275;52.488;13.462;2023-07-20T05:45:18;3.15;;;2.40;;
22211;SDS011;11275;52.488;13.462;2023-07-20T05:47:46;2.60;;;2.20;;
22211;SDS011;11275;52.488;13.462;2023-07-20T05:50:11;2.28;;;2.08;;
22211;SDS011;11275;52.488;13.462;2023-07-20T05:52:37;3.05;;;2.03;;
22211;SDS011;11275;52.488;13.462;2023-07-20T05:55:04;3.00;;;2.28;;
22211;SDS011;11275;52.488;13.462;2023-07-20T05:57:30;3.08;;;2.30;;
22211;SDS011;11275;52.488;13.462;2023-07-20T05:59:55;2.83;;;2.38;;
22211;SDS011;11275;52.488;13.462;2023-07-20T06:02:21;2.10;;;1.80;;
22211;SDS011;11275;52.488;13.462;2023-07-20T06:04:47;2.67;;;2.30;;
22211;SDS011;11275;52.488;13.462;2023-07-20T06:07:12;3.80;;;2.70;;
22211;SDS011;11275;52.488;13.462;2023-07-20T06:09:38;3.03;;;2.70;;
22211;SDS011;11275;52.488;13.462;2023-07-20T06:12:04;3.80;;;2.90;;
22211;SDS011;11275;52.488;13.462;2023-07-20T06:14:30;3.88;;;3.00;;
22211;SDS011;11275;52.488;13.462;2023-07-20T06:16:56;3.13;;;2.83;;
22211;SDS011;11275;52.488;13.462;2023-07-20T06:19:21;3.22;;;2.90;;
22211;SDS011;11275;52.488;13.462;2023-07-20T06:21:47;4.47;;;2.92;;
22211;SDS011;11275;52.488;13.462;2023-07-20T06:24:14;3.30;;;3.00;;
22211;SDS011;11275;52.488;13.462;2023-07-20T06:26:40;3.60;;;3.00;;
22211;SDS011;11275;52.488;13.462;2023-07-20T06:29:06;6.63;;;3.30;;
22211;SDS011;11275;52.488;13.462;2023-07-20T06:31:33;4.05;;;3.75;;
22211;SDS011;11275;52.488;13.462;2023-07-20T06:33:59;4.10;;;3.70;;
22211;SDS011;11275;52.488;13.462;2023-07-20T06:36:24;4.45;;;2.92;;
22211;SDS011;11275;52.488;13.462;2023-07-20T06:38:53;3.40;;;2.97;;
22211;SDS011;11275;52.488;13.462;2023-07-20T06:41:20;4.25;;;3.08;;
22211;SDS011;11275;52.488;13.462;2023-07-20T06:43:54;3.10;;;2.75;;
22211;SDS011;11275;52.488;13.462;2023-07-20T06:46:23;3.60;;;2.80;;
22211;SDS011;11275;52.488;13.462;2023-07-20T06:48:52;5.60;;;2.67;;
22211;SDS011;11275;52.488;13.462;2023-07-20T06:51:19;3.40;;;2.53;;
22211;SDS011;11275;52.488;13.462;2023-07-20T06:53:45;3.22;;;2.25;;
22211;SDS011;11275;52.488;13.462;2023-07-20T06:56:11;3.25;;;2.38;;
22211;SDS011;11275;52.488;13.462;2023-07-20T06:58:36;3.63;;;2.13;;
22211;SDS011;11275;52.488;13.462;2023-07-20T07:01:05;5.57;;;2.10;;
22211;SDS011;11275;52.488;13.462;2023-07-20T07:03:32;3.05;;;1.85;;
22211;SDS011;11275;52.488;13.462;2023-07-20T07:05:58;3.28;;;1.95;;
22211;SDS011;11275;52.488;13.462;2023-07-20T07:08:24;3.60;;;1.70;;
22211;SDS011;11275;52.488;13.462;2023-07-20T07:10:50;4.55;;;2.00;;
22211;SDS011;11275;52.488;13.462;2023-07-20T07:13:16;3.03;;;1.50;;
22211;SDS011;11275;52.488;13.462;2023-07-20T07:15:42;2.40;;;1.25;;
22211;SDS011;11275;52.488;13.462;2023-07-20T07:18:08;2.63;;;1.13;;
22211;SDS011;11275;52.488;13.462;2023-07-20T07:20:33;2.30;;;1.00;;
22211;SDS011;11275;52.488;13.462;2023-07-20T07:22:59;1.88;;;0.85;;
22211;SDS011;11275;52.488;13.462;2023-07-20T07:25:25;2.15;;;0.90;;
22211;SDS011;11275;52.488;13.462;2023-07-20T07:27:52;1.50;;;0.80;;
22211;SDS011;11275;52.488;13.462;2023-07-20T07:30:18;1.30;;;0.88;;
22211;SDS011;11275;52.488;13.462;2023-07-20T07:32:44;0.95;;;0.70;;
22211;SDS011;11275;52.488;13.462;2023-07-20T07:35:09;1.75;;;1.02;;
22211;SDS011;11275;52.488;13.462;2023-07-20T07:37:35;1.58;;;0.80;;
22211;SDS011;11275;52.488;13.462;2023-07-20T07:40:01;0.68;;;0.60;;
22211;SDS011;11275;52.488;13.462;2023-07-20T07:42:28;0.52;;;0.35;;
22211;SDS011;11275;52.488;13.462;2023-07-20T07:44:54;1.05;;;0.30;;
22211;SDS011;11275;52.488;13.462;2023-07-20T07:47:20;0.60;;;0.30;;
22211;SDS011;11275;52.488;13.462;2023-07-20T07:49:45;0.60;;;0.40;;
22211;SDS011;11275;52.488;13.462;2023-07-20T07:52:11;0.50;;;0.32;;
22211;SDS011;11275;52.488;13.462;2023-07-20T07:54:36;0.75;;;0.35;;
22211;SDS011;11275;52.488;13.462;2023-07-20T07:57:02;1.33;;;0.60;;
22211;SDS011;11275;52.488;13.462;2023-07-20T07:59:28;0.60;;;0.47;;
22211;SDS011;11275;52.488;13.462;2023-07-20T08:01:54;1.90;;;0.70;;
22211;SDS011;11275;52.488;13.462;2023-07-20T08:04:20;0.75;;;0.40;;
22211;SDS011;11275;52.488;13.462;2023-07-20T08:06:46;0.98;;;0.47;;
22211;SDS011;11275;52.488;13.462;2023-07-20T08:09:12;3.03;;;0.65;;
22211;SDS011;11275;52.488;13.462;2023-07-20T08:11:38;1.38;;;0.50;;
22211;SDS011;11275;52.488;13.462;2023-07-20T08:14:04;3.05;;;1.23;;
22211;SDS011;11275;52.488;13.462;2023-07-20T08:16:30;2.35;;;1.20;;
22211;SDS011;11275;52.488;13.462;2023-07-20T08:18:55;1.67;;;0.93;;
22211;SDS011;11275;52.488;13.462;2023-07-20T08:21:21;2.45;;;0.93;;
22211;SDS011;11275;52.488;13.462;2023-07-20T08:23:47;0.82;;;0.50;;
22211;SDS011;11275;52.488;13.462;2023-07-20T08:26:12;1.45;;;0.85;;
22211;SDS011;11275;52.488;13.462;2023-07-20T08:28:38;0.80;;;0.43;;
22211;SDS011;11275;52.488;13.462;2023-07-20T08:31:05;0.90;;;0.40;;
22211;SDS011;11275;52.488;13.462;2023-07-20T08:33:31;1.63;;;0.60;;
22211;SDS011;11275;52.488;13.462;2023-07-20T08:35:58;1.00;;;0.60;;
22211;SDS011;11275;52.488;13.462;2023-07-20T08:38:26;1.50;;;0.50;;
22211;SDS011;11275;52.488;13.462;2023-07-20T08:40:51;2.03;;;0.60;;
22211;SDS011;11275;52.488;13.462;2023-07-20T08:43:21;1.75;;;0.60;;
22211;SDS011;11275;52.488;13.462;2023-07-20T08:45:49;0.40;;;0.40;;
22211;SDS011;11275;52.488;13.462;2023-07-20T08:48:16;0.75;;;0.40;;
22211;SDS011;11275;52.488;13.462;2023-07-20T08:50:44;1.05;;;0.32;;
22211;SDS011;11275;52.488;13.462;2023-07-20T08:53:12;2.17;;;0.60;;
22211;SDS011;11275;52.488;13.462;2023-07-20T08:55:38;0.90;;;0.50;;
22211;SDS011;11275;52.488;13.462;2023-07-20T08:58:05;0.88;;;0.40;;
22211;SDS011;11275;52.488;13.462;2023-07-20T09:00:36;2.38;;;0.60;;
22211;SDS011;11275;52.488;13.462;2023-07-20T09:03:02;1.92;;;0.52;;
22211;SDS011;11275;52.488;13.462;2023-07-20T09:05:28;1.75;;;0.57;;
22211;SDS011;11275;52.488;13.462;2023-07-20T09:07:54;1.17;;;0.40;;
22211;SDS011;11275;52.488;13.462;2023-07-20T09:10:20;0.68;;;0.40;;
22211;SDS011;11275;52.488;13.462;2023-07-20T09:12:46;1.42;;;0.40;;
22211;SDS011;11275;52.488;13.462;2023-07-20T09:15:12;3.13;;;0.35;;
22211;SDS011;11275;52.488;13.462;2023-07-20T09:17:38;0.85;;;0.40;;
22211;SDS011;11275;52.488;13.462;2023-07-20T09:20:05;1.90;;;0.32;;
22211;SDS011;11275;52.488;13.462;2023-07-20T09:22:35;1.10;;;0.43;;
22211;SDS011;11275;52.488;13.462;2023-07-20T09:25:05;1.30;;;0.50;;
22211;SDS011;11275;52.488;13.462;2023-07-20T09:27:41;0.40;;;0.30;;
22211;SDS011;11275;52.488;13.462;2023-07-20T09:30:09;2.20;;;0.60;;
22211;SDS011;11275;52.488;13.462;2023-07-20T09:32:42;0.82;;;0.40;;
22211;SDS011;11275;52.488;13.462;2023-07-20T09:35:16;1.05;;;0.40;;
22211;SDS011;11275;52.488;13.462;2023-07-20T09:37:46;1.65;;;0.20;;
22211;SDS011;11275;52.488;13.462;2023-07-20T09:40:16;0.52;;;0.30;;
22211;SDS011;11275;52.488;13.462;2023-07-20T09:42:42;0.25;;;0.20;;
22211;SDS011;11275;52.488;13.462;2023-07-20T09:45:08;0.90;;;0.45;;
22211;SDS011;11275;52.488;13.462;2023-07-20T09:47:35;2.65;;;1.10;;
22211;SDS011;11275;52.488;13.462;2023-07-20T09:50:02;1.35;;;0.82;;
22211;SDS011;11275;52.488;13.462;2023-07-20T09:52:28;2.95;;;0.75;;
22211;SDS011;11275;52.488;13.462;2023-07-20T09:54:54;1.85;;;0.40;;
22211;SDS011;11275;52.488;13.462;2023-07-20T09:57:21;2.17;;;0.90;;
22211;SDS011;11275;52.488;13.462;2023-07-20T09:59:46;28.15;;;25.27;;
22211;SDS011;11275;52.488;13.462;2023-07-20T10:02:25;6.60;;;5.18;;
22211;SDS011;11275;52.488;13.462;2023-07-20T10:04:54;2.00;;;1.48;;
22211;SDS011;11275;52.488;13.462;2023-07-20T10:07:21;2.08;;;1.70;;
22211;SDS011;11275;52.488;13.462;2023-07-20T10:09:50;1.83;;;0.80;;
22211;SDS011;11275;52.488;13.462;2023-07-20T10:12:17;2.83;;;0.90;;
22211;SDS011;11275;52.488;13.462;2023-07-20T10:14:50;1.13;;;0.52;;
22211;SDS011;11275;52.488;13.462;2023-07-20T10:17:21;2.78;;;0.50;;
22211;SDS011;11275;52.488;13.462;2023-07-20T10:19:50;2.00;;;0.85;;
22211;SDS011;11275;52.488;13.462;2023-07-20T10:22:20;1.83;;;0.50;;
22211;SDS011;11275;52.488;13.462;2023-07-20T10:24:52;1.33;;;0.85;;
22211;SDS011;11275;52.488;13.462;2023-07-20T10:27:19;2.00;;;1.23;;
22211;SDS011;11275;52.488;13.462;2023-07-20T10:29:46;1.95;;;0.55;;
22211;SDS011;11275;52.488;13.462;2023-07-20T10:32:24;1.63;;;0.40;;
22211;SDS011;11275;52.488;13.462;2023-07-20T10:34:55;0.50;;;0.40;;
22211;SDS011;11275;52.488;13.462;2023-07-20T10:40:23;1.80;;;0.70;;
22211;SDS011;11275;52.488;13.462;2023-07-20T10:43:09;3.53;;;0.65;;
22211;SDS011;11275;52.488;13.462;2023-07-20T10:48:04;0.50;;;0.30;;
22211;SDS011;11275;52.488;13.462;2023-07-20T10:50:32;1.73;;;0.40;;
22211;SDS011;11275;52.488;13.462;2023-07-20T10:53:32;0.93;;;0.70;;
22211;SDS011;11275;52.488;13.462;2023-07-20T10:55:54;2.30;;;0.93;;
22211;SDS011;11275;52.488;13.462;2023-07-20T10:58:32;2.30;;;0.95;;
22211;SDS011;11275;52.488;13.462;2023-07-20T11:01:02;1.73;;;0.70;;
22211;SDS011;11275;52.488;13.462;2023-07-20T11:03:36;1.40;;;0.80;;
22211;SDS011;11275;52.488;13.462;2023-07-20T11:08:54;2.38;;;0.80;;
22211;SDS011;11275;52.488;13.462;2023-07-20T11:11:22;1.30;;;0.80;;
22211;SDS011;11275;52.488;13.462;2023-07-20T11:13:55;2.35;;;1.27;;
22211;SDS011;11275;52.488;13.462;2023-07-20T11:16:32;1.45;;;0.65;;
22211;SDS011;11275;52.488;13.462;2023-07-20T11:19:01;1.27;;;0.50;;
22211;SDS011;11275;52.488;13.462;2023-07-20T11:21:28;2.00;;;0.40;;
22211;SDS011;11275;52.488;13.462;2023-07-20T11:23:54;2.13;;;0.70;;
22211;SDS011;11275;52.488;13.462;2023-07-20T11:26:21;1.30;;;0.50;;
22211;SDS011;11275;52.488;13.462;2023-07-20T11:28:50;2.00;;;0.40;;
22211;SDS011;11275;52.488;13.462;2023-07-20T11:31:17;1.25;;;0.50;;
22211;SDS011;11275;52.488;13.462;2023-07-20T11:33:43;1.17;;;0.47;;
22211;SDS011;11275;52.488;13.462;2023-07-20T11:36:09;1.58;;;0.40;;
22211;SDS011;11275;52.488;13.462;2023-07-20T11:38:35;0.85;;;0.40;;
22211;SDS011;11275;52.488;13.462;2023-07-20T11:41:02;1.17;;;0.40;;
22211;SDS011;11275;52.488;13.462;2023-07-20T11:43:28;2.90;;;0.50;;
22211;SDS011;11275;52.488;13.462;2023-07-20T11:45:55;2.35;;;0.88;;
22211;SDS011;11275;52.488;13.462;2023-07-20T11:48:21;0.70;;;0.28;;
22211;SDS011;11275;52.488;13.462;2023-07-20T11:50:47;3.13;;;0.30;;
22211;SDS011;11275;52.488;13.462;2023-07-20T11:53:13;1.67;;;0.50;;
22211;SDS011;11275;52.488;13.462;2023-07-20T11:55:41;1.27;;;0.88;;
22211;SDS011;11275;52.488;13.462;2023-07-20T11:58:07;5.50;;;2.67;;
22211;SDS011;11275;52.488;13.462;2023-07-20T12:00:34;5.57;;;1.40;;
22211;SDS011;11275;52.488;13.462;2023-07-20T12:03:00;4.45;;;1.42;;
22211;SDS011;11275;52.488;13.462;2023-07-20T12:05:26;1.17;;;0.50;;
22211;SDS011;11275;52.488;13.462;2023-07-20T12:07:52;0.82;;;0.38;;
22211;SDS011;11275;52.488;13.462;2023-07-20T12:10:23;3.00;;;2.55;;
22211;SDS011;11275;52.488;13.462;2023-07-20T12:12:51;2.15;;;1.35;;
22211;SDS011;11275;52.488;13.462;2023-07-20T12:15:23;1.80;;;0.80;;
22211;SDS011;11275;52.488;13.462;2023-07-20T12:18:01;0.65;;;0.43;;
22211;SDS011;11275;52.488;13.462;2023-07-20T12:20:31;0.30;;;0.28;;
22211;SDS011;11275;52.488;13.462;2023-07-20T12:23:00;1.45;;;0.52;;
22211;SDS011;11275;52.488;13.462;2023-07-20T12:25:33;0.90;;;0.40;;
22211;SDS011;11275;52.488;13.462;2023-07-20T12:28:06;2.45;;;0.50;;
22211;SDS011;11275;52.488;13.462;2023-07-20T12:30:33;0.57;;;0.38;;
22211;SDS011;11275;52.488;13.462;2023-07-20T12:32:59;0.63;;;0.30;;
22211;SDS011;11275;52.488;13.462;2023-07-20T12:35:24;1.73;;;0.47;;
22211;SDS011;11275;52.488;13.462;2023-07-20T12:37:50;0.77;;;0.40;;
22211;SDS011;11275;52.488;13.462;2023-07-20T12:40:16;1.55;;;0.30;;
22211;SDS011;11275;52.488;13.462;2023-07-20T12:42:42;0.75;;;0.30;;
22211;SDS011;11275;52.488;13.462;2023-07-20T12:45:08;1.33;;;0.30;;
22211;SDS011;11275;52.488;13.462;2023-07-20T12:47:34;0.85;;;0.20;;
22211;SDS011;11275;52.488;13.462;2023-07-20T12:49:59;0.93;;;0.30;;
22211;SDS011;11275;52.488;13.462;2023-07-20T12:52:25;2.95;;;0.30;;
22211;SDS011;11275;52.488;13.462;2023-07-20T12:54:51;0.73;;;0.38;;
22211;SDS011;11275;52.488;13.462;2023-07-20T12:57:17;1.02;;;0.30;;
22211;SDS011;11275;52.488;13.462;2023-07-20T12:59:43;0.68;;;0.40;;
22211;SDS011;11275;52.488;13.462;2023-07-20T13:02:08;1.30;;;0.40;;
22211;SDS011;11275;52.488;13.462;2023-07-20T13:04:34;1.65;;;0.20;;
22211;SDS011;11275;52.488;13.462;2023-07-20T13:06:59;1.88;;;0.30;;
22211;SDS011;11275;52.488;13.462;2023-07-20T13:09:25;2.38;;;1.25;;
22211;SDS011;11275;52.488;13.462;2023-07-20T13:11:51;4.95;;;2.05;;
22211;SDS011;11275;52.488;13.462;2023-07-20T13:14:17;0.50;;;0.30;;
22211;SDS011;11275;52.488;13.462;2023-07-20T13:16:43;0.70;;;0.40;;
22211;SDS011;11275;52.488;13.462;2023-07-20T13:19:08;1.58;;;0.30;;
22211;SDS011;11275;52.488;13.462;2023-07-20T13:21:34;0.90;;;0.20;;
22211;SDS011;11275;52.488;13.462;2023-07-20T13:24:00;0.40;;;0.20;;
22211;SDS011;11275;52.488;13.462;2023-07-20T13:26:25;0.25;;;0.17;;
22211;SDS011;11275;52.488;13.462;2023-07-20T13:28:51;0.30;;;0.20;;
22211;SDS011;11275;52.488;13.462;2023-07-20T13:31:17;1.40;;;0.90;;
22211;SDS011;11275;52.488;13.462;2023-07-20T13:33:43;2.55;;;1.40;;
22211;SDS011;11275;52.488;13.462;2023-07-20T13:36:08;1.05;;;0.77;;
22211;SDS011;11275;52.488;13.462;2023-07-20T13:38:34;2.72;;;1.25;;
22211;SDS011;11275;52.488;13.462;2023-07-20T13:40:59;1.73;;;0.70;;
22211;SDS011;11275;52.488;13.462;2023-07-20T13:43:25;2.65;;;2.30;;
22211;SDS011;11275;52.488;13.462;2023-07-20T13:45:51;2.58;;;1.42;;
22211;SDS011;11275;52.488;13.462;2023-07-20T13:48:17;2.90;;;1.77;;
22211;SDS011;11275;52.488;13.462;2023-07-20T13:50:44;1.35;;;0.40;;
22211;SDS011;11275;52.488;13.462;2023-07-20T13:53:10;0.60;;;0.40;;
22211;SDS011;11275;52.488;13.462;2023-07-20T13:55:36;1.38;;;0.60;;
22211;SDS011;11275;52.488;13.462;2023-07-20T13:58:03;1.10;;;0.38;;
22211;SDS011;11275;52.488;13.462;2023-07-20T14:00:29;1.75;;;0.40;;
22211;SDS011;11275;52.488;13.462;2023-07-20T14:02:58;1.60;;;0.40;;
22211;SDS011;11275;52.488;13.462;2023-07-20T14:05:24;1.85;;;0.50;;
22211;SDS011;11275;52.488;13.462;2023-07-20T14:07:50;1.15;;;0.30;;
22211;SDS011;11275;52.488;13.462;2023-07-20T14:10:16;1.35;;;0.38;;
22211;SDS011;11275;52.488;13.462;2023-07-20T14:12:42;0.80;;;0.38;;
22211;SDS011;11275;52.488;13.462;2023-07-20T14:15:09;1.08;;;0.35;;
22211;SDS011;11275;52.488;13.462;2023-07-20T14:17:35;0.82;;;0.38;;
22211;SDS011;11275;52.488;13.462;2023-07-20T14:20:00;0.90;;;0.40;;
22211;SDS011;11275;52.488;13.462;2023-07-20T14:22:27;6.03;;;0.75;;
22211;SDS011;11275;52.488;13.462;2023-07-20T14:24:52;1.67;;;0.45;;
22211;SDS011;11275;52.488;13.462;2023-07-20T14:27:18;1.25;;;0.45;;
22211;SDS011;11275;52.488;13.462;2023-07-20T14:29:44;0.95;;;0.40;;
22211;SDS011;11275;52.488;13.462;2023-07-20T14:32:09;0.77;;;0.50;;
22211;SDS011;11275;52.488;13.462;2023-07-20T14:34:35;1.58;;;0.40;;
22211;SDS011;11275;52.488;13.462;2023-07-20T14:37:01;1.80;;;0.50;;
22211;SDS011;11275;52.488;13.462;2023-07-20T14:39:27;2.00;;;0.40;;
22211;SDS011;11275;52.488;13.462;2023-07-20T14:41:53;3.15;;;0.40;;
22211;SDS011;11275;52.488;13.462;2023-07-20T14:44:18;1.02;;;0.50;;
22211;SDS011;11275;52.488;13.462;2023-07-20T14:46:45;0.57;;;0.35;;
22211;SDS011;11275;52.488;13.462;2023-07-20T14:49:11;0.95;;;0.47;;